createdAt,value
2023-06-10T00:02:25.249Z,5.35
2023-06-10T00:04:55.294Z,6.00
2023-06-10T00:07:22.738Z,5.07
2023-06-10T00:09:49.960Z,5.68
2023-06-10T00:12:18.027Z,5.13
2023-06-10T00:14:45.261Z,5.28
2023-06-10T00:17:12.605Z,5.45
2023-06-10T00:19:42.925Z,5.53
2023-06-10T00:22:13.482Z,5.20
2023-06-10T00:24:41.376Z,5.20
2023-06-10T00:27:08.728Z,5.35
2023-06-10T00:29:36.144Z,5.47
2023-06-10T00:32:04.056Z,5.47
2023-06-10T00:34:31.685Z,5.70
2023-06-10T00:36:59.230Z,5.50
2023-06-10T00:39:26.537Z,6.10
2023-06-10T00:41:53.708Z,5.60
2023-06-10T00:44:20.925Z,5.25
2023-06-10T00:46:48.470Z,5.60
2023-06-10T00:49:16.098Z,5.45
2023-06-10T00:51:43.658Z,5.22
2023-06-10T00:54:14.544Z,5.47
2023-06-10T00:56:44.157Z,5.85
2023-06-10T00:59:11.407Z,6.32
2023-06-10T01:01:39.774Z,5.30
2023-06-10T01:04:07.009Z,5.97
2023-06-10T01:06:53.960Z,5.57
2023-06-10T01:09:46.391Z,5.70
2023-06-10T01:12:49.996Z,5.83
2023-06-10T01:15:18.868Z,6.20
2023-06-10T01:18:02.687Z,5.88
2023-06-10T01:20:33.328Z,5.95
2023-06-10T01:23:03.956Z,5.85
2023-06-10T01:25:33.813Z,5.88
2023-06-10T01:28:15.107Z,6.43
2023-06-10T01:31:09.450Z,6.18
2023-06-10T01:33:42.851Z,6.20
2023-06-10T01:36:12.297Z,6.03
2023-06-10T01:38:45.931Z,6.20
2023-06-10T01:41:17.010Z,6.32
2023-06-10T01:43:46.639Z,6.97
2023-06-10T01:46:14.752Z,6.53
2023-06-10T01:48:44.794Z,6.57
2023-06-10T01:51:12.008Z,6.55
2023-06-10T01:53:39.211Z,6.15
2023-06-10T01:56:06.625Z,6.72
2023-06-10T01:58:33.790Z,6.93
2023-06-10T02:01:00.985Z,6.57
2023-06-10T02:03:28.397Z,6.38
2023-06-10T02:05:55.799Z,7.25
2023-06-10T02:08:23.028Z,6.85
2023-06-10T02:10:50.300Z,6.50
2023-06-10T02:13:17.525Z,7.00
2023-06-10T02:15:44.741Z,6.88
2023-06-10T02:18:13.075Z,7.22
2023-06-10T02:20:40.451Z,7.13
2023-06-10T02:23:07.662Z,6.80
2023-06-10T02:25:34.894Z,6.88
2023-06-10T02:28:04.424Z,7.35
2023-06-10T02:30:31.704Z,7.30
2023-06-10T02:33:00.399Z,7.00
2023-06-10T02:35:27.685Z,7.28
2023-06-10T02:37:54.906Z,7.05
2023-06-10T02:40:22.141Z,6.95
2023-06-10T02:42:49.354Z,6.93
2023-06-10T02:45:16.575Z,7.35
2023-06-10T02:47:44.055Z,7.60
2023-06-10T02:50:11.429Z,8.00
2023-06-10T02:52:38.734Z,7.55
2023-06-10T02:55:06.818Z,7.50
2023-06-10T02:57:34.331Z,7.03
2023-06-10T03:00:03.399Z,7.65
2023-06-10T03:02:30.733Z,8.40
2023-06-10T03:04:58.785Z,8.13
2023-06-10T03:07:27.122Z,7.70
2023-06-10T03:09:54.422Z,7.70
2023-06-10T03:12:21.665Z,7.90
2023-06-10T03:14:48.863Z,7.53
2023-06-10T03:17:16.043Z,7.93
2023-06-10T03:19:43.286Z,7.72
2023-06-10T03:22:16.225Z,7.93
2023-06-10T03:27:12.004Z,8.30
2023-06-10T03:29:39.289Z,8.18
2023-06-10T03:32:07.494Z,8.27
2023-06-10T03:34:35.173Z,8.45
2023-06-10T03:37:02.372Z,8.07
2023-06-10T03:39:30.275Z,8.45
2023-06-10T03:42:00.399Z,8.07
2023-06-10T03:44:27.693Z,8.57
2023-06-10T03:46:58.650Z,8.10
2023-06-10T03:49:27.684Z,8.45
2023-06-10T03:51:55.087Z,8.60
2023-06-10T03:54:23.251Z,8.65
2023-06-10T03:56:50.521Z,7.72
2023-06-10T03:59:17.851Z,8.77
2023-06-10T04:01:45.893Z,7.47
2023-06-10T04:04:17.744Z,7.78
2023-06-10T04:06:45.560Z,7.53
2023-06-10T04:09:13.796Z,7.68
2023-06-10T04:11:41.270Z,7.43
2023-06-10T04:14:09.675Z,8.23
2023-06-10T04:16:37.010Z,8.00
2023-06-10T04:19:04.274Z,7.90
2023-06-10T04:21:31.525Z,7.68
2023-06-10T04:23:59.343Z,7.32
2023-06-10T04:26:26.825Z,8.02
2023-06-10T04:28:54.144Z,7.80
2023-06-10T04:31:21.949Z,7.68
2023-06-10T04:33:49.342Z,7.57
2023-06-10T04:36:16.674Z,7.28
2023-06-10T04:38:44.163Z,7.32
2023-06-10T04:41:11.479Z,8.13
2023-06-10T04:43:39.674Z,7.40
2023-06-10T04:46:08.968Z,7.78
2023-06-10T04:48:37.128Z,7.93
2023-06-10T04:51:04.414Z,7.65
2023-06-10T04:53:31.735Z,7.60
2023-06-10T04:55:59.056Z,7.70
2023-06-10T04:58:26.304Z,7.82
2023-06-10T05:00:53.506Z,7.72
2023-06-10T05:03:20.807Z,8.00
2023-06-10T05:05:48.109Z,7.95
2023-06-10T05:08:15.364Z,7.50
2023-06-10T05:10:42.609Z,7.65
2023-06-10T05:13:09.887Z,7.80
2023-06-10T05:15:38.018Z,8.10
2023-06-10T05:18:05.479Z,7.63
2023-06-10T05:20:32.774Z,7.53
2023-06-10T05:22:59.949Z,7.68
2023-06-10T05:25:31.098Z,7.82
2023-06-10T05:27:58.305Z,7.60
2023-06-10T05:30:26.905Z,7.88
2023-06-10T05:32:54.193Z,7.22
2023-06-10T05:35:21.421Z,7.85
2023-06-10T05:37:49.153Z,7.95
2023-06-10T05:40:16.508Z,7.75
2023-06-10T05:42:43.685Z,7.43
2023-06-10T05:45:11.717Z,7.40
2023-06-10T05:47:39.024Z,7.78
2023-06-10T05:50:08.253Z,8.00
2023-06-10T05:52:37.296Z,7.45
2023-06-10T05:55:04.930Z,7.60
2023-06-10T05:57:32.170Z,8.18
2023-06-10T05:59:59.462Z,7.03
2023-06-10T06:02:26.915Z,6.88
2023-06-10T06:04:54.253Z,7.22
2023-06-10T06:07:21.930Z,6.70
2023-06-10T06:09:49.308Z,6.82
2023-06-10T06:12:16.527Z,7.15
2023-06-10T06:14:44.085Z,7.28
2023-06-10T06:17:11.997Z,8.93
2023-06-10T06:19:39.427Z,6.88
2023-06-10T06:22:06.761Z,7.25
2023-06-10T06:24:34.100Z,7.40
2023-06-10T06:27:01.414Z,6.95
2023-06-10T06:29:30.946Z,6.88
2023-06-10T06:31:58.814Z,7.35
2023-06-10T06:34:26.380Z,7.40
2023-06-10T06:36:53.598Z,7.45
2023-06-10T06:39:20.862Z,7.30
2023-06-10T06:41:48.040Z,6.97
2023-06-10T06:44:15.489Z,6.25
2023-06-10T06:46:42.697Z,7.28
2023-06-10T06:49:09.892Z,7.63
2023-06-10T06:51:38.207Z,7.32
2023-06-10T06:54:06.745Z,7.00
2023-06-10T06:56:34.000Z,6.85
2023-06-10T06:59:01.201Z,6.70
2023-06-10T07:01:28.500Z,7.32
2023-06-10T07:03:55.734Z,6.85
2023-06-10T07:06:22.963Z,6.88
2023-06-10T07:08:50.808Z,6.35
2023-06-10T07:11:18.863Z,7.60
2023-06-10T07:13:46.043Z,6.88
2023-06-10T07:16:13.213Z,6.70
2023-06-10T07:18:40.470Z,6.75
2023-06-10T07:21:07.735Z,6.53
2023-06-10T07:23:34.980Z,6.38
2023-06-10T07:26:02.220Z,6.07
2023-06-10T07:28:29.470Z,6.65
2023-06-10T07:30:56.706Z,6.85
2023-06-10T07:33:23.971Z,6.10
2023-06-10T07:35:51.221Z,6.10
2023-06-10T07:38:18.634Z,6.50
2023-06-10T07:40:46.699Z,6.57
2023-06-10T07:43:14.035Z,6.13
2023-06-10T07:45:42.261Z,5.78
2023-06-10T07:48:09.677Z,6.38
2023-06-10T07:50:37.182Z,5.60
2023-06-10T07:53:05.354Z,6.00
2023-06-10T07:55:32.658Z,5.53
2023-06-10T07:57:59.883Z,6.30
2023-06-10T08:00:27.165Z,5.80
2023-06-10T08:02:54.532Z,5.93
2023-06-10T08:05:22.015Z,7.95
2023-06-10T08:07:49.331Z,6.20
2023-06-10T08:10:16.566Z,6.38
2023-06-10T08:12:43.839Z,5.75
2023-06-10T08:15:11.653Z,5.40
2023-06-10T08:17:40.310Z,5.53
2023-06-10T08:20:08.177Z,5.18
2023-06-10T08:22:35.421Z,5.50
2023-06-10T08:25:02.854Z,5.20
2023-06-10T08:27:30.101Z,5.53
2023-06-10T08:29:57.380Z,5.00
2023-06-10T08:32:24.649Z,5.07
2023-06-10T08:34:51.930Z,5.15
2023-06-10T08:37:19.097Z,4.53
2023-06-10T08:39:46.338Z,5.13
2023-06-10T08:42:42.965Z,5.00
2023-06-10T08:45:18.649Z,5.32
2023-06-10T08:47:54.962Z,5.25
2023-06-10T08:50:22.472Z,5.22
2023-06-10T08:52:58.267Z,5.45
2023-06-10T08:55:37.581Z,5.07
2023-06-10T08:58:05.400Z,5.50
2023-06-10T09:00:33.622Z,5.53
2023-06-10T09:03:04.707Z,5.03
2023-06-10T09:05:37.595Z,5.60
2023-06-10T09:08:07.384Z,5.80
2023-06-10T09:10:35.347Z,5.40
2023-06-10T09:13:02.739Z,5.15
2023-06-10T09:15:30.016Z,5.40
2023-06-10T09:17:57.312Z,5.32
2023-06-10T09:20:24.799Z,5.57
2023-06-10T09:22:52.779Z,6.07
2023-06-10T09:25:20.060Z,5.25
2023-06-10T09:27:51.130Z,5.20
2023-06-10T09:30:36.037Z,5.25
2023-06-10T09:33:11.695Z,5.45
2023-06-10T09:35:50.144Z,5.43
2023-06-10T09:38:22.821Z,5.70
2023-06-10T09:40:55.292Z,6.20
2023-06-10T09:43:22.818Z,5.65
2023-06-10T09:45:55.686Z,5.78
2023-06-10T09:48:24.572Z,5.75
2023-06-10T09:50:51.828Z,5.82
2023-06-10T09:53:19.790Z,6.13
2023-06-10T09:55:47.150Z,5.70
2023-06-10T09:58:15.504Z,5.90
2023-06-10T10:00:42.679Z,6.18
2023-06-10T10:03:09.913Z,6.00
2023-06-10T10:05:37.253Z,6.38
2023-06-10T10:08:05.007Z,6.15
2023-06-10T10:10:32.248Z,6.47
2023-06-10T10:13:01.395Z,6.47
2023-06-10T10:15:35.304Z,7.03
2023-06-10T10:18:11.790Z,6.78
2023-06-10T10:20:49.125Z,6.25
2023-06-10T10:23:25.784Z,6.70
2023-06-10T10:25:56.323Z,6.75
2023-06-10T10:28:30.673Z,6.57
2023-06-10T10:31:08.918Z,6.45
2023-06-10T10:34:03.703Z,6.78
2023-06-10T10:36:32.442Z,6.00
2023-06-10T10:39:03.051Z,6.47
2023-06-10T10:41:33.465Z,6.00
2023-06-10T10:44:02.412Z,5.97
2023-06-10T10:46:31.334Z,6.22
2023-06-10T10:49:02.503Z,6.32
2023-06-10T10:51:36.511Z,6.43
2023-06-10T10:54:16.150Z,6.60
2023-06-10T10:57:13.480Z,6.35
2023-06-10T10:59:49.571Z,6.18
2023-06-10T11:02:34.349Z,7.05
2023-06-10T11:05:03.031Z,7.50
2023-06-10T11:07:32.820Z,6.82
2023-06-10T11:10:11.150Z,6.93
2023-06-10T11:12:47.328Z,6.68
2023-06-10T11:15:18.744Z,7.30
2023-06-10T11:18:13.063Z,7.53
2023-06-10T11:20:49.556Z,6.57
2023-06-10T11:23:28.858Z,6.80
2023-06-10T11:26:32.672Z,7.03
2023-06-10T11:29:00.047Z,6.95
2023-06-10T11:31:45.993Z,6.60
2023-06-10T11:34:14.621Z,6.50
2023-06-10T11:36:46.089Z,7.00
2023-06-10T11:39:13.637Z,6.67
2023-06-10T11:41:41.322Z,6.30
2023-06-10T11:44:18.254Z,6.97
2023-06-10T11:46:46.477Z,7.95
2023-06-10T11:49:13.765Z,8.05
2023-06-10T11:51:49.929Z,7.18
2023-06-10T11:54:17.405Z,7.32
2023-06-10T11:56:44.748Z,8.00
2023-06-10T11:59:12.016Z,7.68
2023-06-10T12:01:47.013Z,7.35
2023-06-10T12:04:17.268Z,6.70
2023-06-10T12:06:51.018Z,6.90
2023-06-10T12:09:36.102Z,7.38
2023-06-10T12:12:07.120Z,7.30
2023-06-10T12:14:57.999Z,6.95
2023-06-10T12:17:38.533Z,7.43
2023-06-10T12:20:25.273Z,6.88
2023-06-10T12:22:52.498Z,7.30
2023-06-10T12:25:29.858Z,7.22
2023-06-10T12:27:59.029Z,7.60
2023-06-10T12:30:28.564Z,7.93
2023-06-10T12:32:57.805Z,7.97
2023-06-10T12:35:29.661Z,7.65
2023-06-10T12:38:07.884Z,7.10
2023-06-10T12:40:41.589Z,7.72
2023-06-10T12:43:09.233Z,8.20
2023-06-10T12:45:40.624Z,7.72
2023-06-10T12:48:26.630Z,7.70
2023-06-10T12:50:58.263Z,8.60
2023-06-10T12:53:29.608Z,7.15
2023-06-10T12:55:56.822Z,7.75
2023-06-10T12:58:24.415Z,7.30
2023-06-10T13:00:53.958Z,7.47
2023-06-10T13:03:21.803Z,8.02
2023-06-10T13:05:49.557Z,7.97
2023-06-10T13:08:16.870Z,7.68
2023-06-10T13:10:44.223Z,7.50
2023-06-10T13:13:11.524Z,7.15
2023-06-10T13:15:42.666Z,7.30
2023-06-10T13:18:10.853Z,7.07
2023-06-10T13:20:38.113Z,7.35
2023-06-10T13:23:05.333Z,7.50
2023-06-10T13:25:33.698Z,6.60
2023-06-10T13:28:00.926Z,6.72
2023-06-10T13:30:28.446Z,7.28
2023-06-10T13:32:55.870Z,7.45
2023-06-10T13:35:23.101Z,7.85
2023-06-10T13:37:50.575Z,6.53
2023-06-10T13:40:17.768Z,7.32
2023-06-10T13:42:45.278Z,6.90
2023-06-10T13:45:12.790Z,7.60
2023-06-10T13:47:40.523Z,6.88
2023-06-10T13:50:08.877Z,7.35
2023-06-10T13:52:36.052Z,7.15
2023-06-10T13:55:03.529Z,7.57
2023-06-10T13:57:30.894Z,7.18
2023-06-10T13:59:58.059Z,6.80
2023-06-10T14:02:25.450Z,6.47
2023-06-10T14:04:52.746Z,7.40
2023-06-10T14:07:19.941Z,7.53
2023-06-10T14:09:47.139Z,7.20
2023-06-10T14:12:14.407Z,6.93
2023-06-10T14:14:41.607Z,6.82
2023-06-10T14:17:08.932Z,6.97
2023-06-10T14:19:36.282Z,6.63
2023-06-10T14:22:06.479Z,6.63
2023-06-10T14:24:37.313Z,6.50
2023-06-10T14:27:04.722Z,6.30
2023-06-10T14:29:32.753Z,6.25
2023-06-10T14:32:00.849Z,6.82
2023-06-10T14:34:30.781Z,6.82
2023-06-10T14:36:58.010Z,6.57
2023-06-10T14:39:25.800Z,6.63
2023-06-10T14:41:55.713Z,6.97
2023-06-10T14:44:22.875Z,6.82
2023-06-10T14:46:50.061Z,7.15
2023-06-10T14:49:17.346Z,6.97
2023-06-10T14:51:45.657Z,7.07
2023-06-10T14:54:12.909Z,6.85
2023-06-10T14:56:40.062Z,6.85
2023-06-10T14:59:07.268Z,7.13
2023-06-10T15:01:34.800Z,6.57
2023-06-10T15:04:02.052Z,6.80
2023-06-10T15:06:29.428Z,6.55
2023-06-10T15:08:56.619Z,7.03
2023-06-10T15:11:23.852Z,6.80
2023-06-10T15:13:51.145Z,6.45
2023-06-10T15:16:18.405Z,7.05
2023-06-10T15:18:45.715Z,7.18
2023-06-10T15:21:12.912Z,7.03
2023-06-10T15:23:40.694Z,7.72
2023-06-10T15:26:08.077Z,7.60
2023-06-10T15:28:35.475Z,7.13
2023-06-10T15:31:02.741Z,9.07
2023-06-10T15:33:30.266Z,9.05
2023-06-10T15:35:57.659Z,9.52
2023-06-10T15:38:25.005Z,8.85
2023-06-10T15:40:52.248Z,9.65
2023-06-10T15:43:19.540Z,9.90
2023-06-10T15:45:48.358Z,8.57
2023-06-10T15:48:15.839Z,9.48
2023-06-10T15:50:43.949Z,9.80
2023-06-10T15:53:11.801Z,9.23
2023-06-10T15:55:39.042Z,9.00
2023-06-10T15:58:06.491Z,10.27
2023-06-10T16:00:35.478Z,8.43
2023-06-10T16:03:03.980Z,9.00
2023-06-10T16:05:31.301Z,9.80
2023-06-10T16:08:00.489Z,10.55
2023-06-10T16:10:30.039Z,10.98
2023-06-10T16:12:57.220Z,20.77
2023-06-10T16:15:24.430Z,15.70
2023-06-10T16:17:51.678Z,10.85
2023-06-10T16:20:19.622Z,12.05
2023-06-10T16:22:46.793Z,8.13
2023-06-10T16:25:14.026Z,7.25
2023-06-10T16:27:41.250Z,6.35
2023-06-10T16:30:09.133Z,7.05
2023-06-10T16:32:36.381Z,6.70
2023-06-10T16:35:04.028Z,6.93
2023-06-10T16:37:31.208Z,6.78
2023-06-10T16:39:58.452Z,7.30
2023-06-10T16:42:26.019Z,7.57
2023-06-10T16:44:53.250Z,6.78
2023-06-10T16:47:20.955Z,7.57
2023-06-10T16:49:50.661Z,7.13
2023-06-10T16:52:18.601Z,7.32
2023-06-10T16:54:45.823Z,7.20
2023-06-10T16:57:13.202Z,6.88
2023-06-10T16:59:40.513Z,7.30
2023-06-10T17:02:07.737Z,6.93
2023-06-10T17:04:35.009Z,7.10
2023-06-10T17:07:02.510Z,7.72
2023-06-10T17:09:29.779Z,7.97
2023-06-10T17:11:57.179Z,7.65
2023-06-10T17:14:27.370Z,7.72
2023-06-10T17:16:54.641Z,7.32
2023-06-10T17:19:22.076Z,8.60
2023-06-10T17:21:49.286Z,7.72
2023-06-10T17:24:16.649Z,7.22
2023-06-10T17:26:43.986Z,8.00
2023-06-10T17:29:11.449Z,7.80
2023-06-10T17:31:38.761Z,7.72
2023-06-10T17:34:05.952Z,9.77
2023-06-10T17:36:33.180Z,8.85
2023-06-10T17:39:00.410Z,8.32
2023-06-10T17:41:27.628Z,9.10
2023-06-10T17:43:54.801Z,7.95
2023-06-10T17:46:22.031Z,8.68
2023-06-10T17:48:49.218Z,8.52
2023-06-10T17:51:17.018Z,8.48
2023-06-10T17:53:44.316Z,8.50
2023-06-10T17:56:11.527Z,8.50
2023-06-10T17:58:38.736Z,8.80
2023-06-10T18:01:06.417Z,9.88
2023-06-10T18:03:37.242Z,9.32
2023-06-10T18:06:05.517Z,9.38
2023-06-10T18:08:34.660Z,9.27
2023-06-10T18:11:03.516Z,9.70
2023-06-10T18:13:33.245Z,10.07
2023-06-10T18:16:03.109Z,9.98
2023-06-10T18:18:30.365Z,9.75
2023-06-10T18:20:59.798Z,10.73
2023-06-10T18:23:28.480Z,10.02
2023-06-10T18:25:55.769Z,9.90
2023-06-10T18:28:23.463Z,9.85
2023-06-10T18:30:50.655Z,10.00
2023-06-10T18:33:17.828Z,11.13
2023-06-10T18:35:45.099Z,10.70
2023-06-10T18:38:12.312Z,10.20
2023-06-10T18:40:39.491Z,10.07
2023-06-10T18:43:06.801Z,10.30
2023-06-10T18:45:34.064Z,10.73
2023-06-10T18:48:01.403Z,10.75
2023-06-10T18:50:28.679Z,11.48
2023-06-10T18:52:57.657Z,10.80
2023-06-10T18:55:25.312Z,10.73
2023-06-10T18:57:52.520Z,10.05
2023-06-10T19:00:19.896Z,11.30
2023-06-10T19:02:47.220Z,10.65
2023-06-10T19:05:15.102Z,10.52
2023-06-10T19:07:42.300Z,9.98
2023-06-10T19:10:09.841Z,10.50
2023-06-10T19:12:37.030Z,10.15
2023-06-10T19:15:04.860Z,10.63
2023-06-10T19:17:32.076Z,10.73
2023-06-10T19:19:59.809Z,10.85
2023-06-10T19:22:27.027Z,10.45
2023-06-10T19:25:06.572Z,10.18
2023-06-10T19:27:34.641Z,10.75
2023-06-10T19:30:02.634Z,10.88
2023-06-10T19:32:29.894Z,11.70
2023-06-10T19:34:57.133Z,11.32
2023-06-10T19:37:24.460Z,11.70
2023-06-10T19:39:51.622Z,12.52
2023-06-10T19:42:18.816Z,12.23
2023-06-10T19:44:46.121Z,12.57
2023-06-10T19:47:13.409Z,11.55
2023-06-10T19:49:40.758Z,11.93
2023-06-10T19:52:08.896Z,12.40
2023-06-10T19:54:37.122Z,12.30
2023-06-10T19:57:04.777Z,12.27
2023-06-10T19:59:33.627Z,13.32
2023-06-10T20:02:00.978Z,12.93
2023-06-10T20:04:28.318Z,13.27
2023-06-10T20:06:55.553Z,12.57
2023-06-10T20:09:23.218Z,12.95
2023-06-10T20:11:50.434Z,20.77
2023-06-10T20:14:19.216Z,17.98
2023-06-10T20:16:46.565Z,20.25
2023-06-10T20:19:14.038Z,18.10
2023-06-10T20:21:41.275Z,14.55
2023-06-10T20:24:09.304Z,14.52
2023-06-10T20:26:36.648Z,14.52
2023-06-10T20:29:04.412Z,14.05
2023-06-10T20:31:31.899Z,15.25
2023-06-10T20:33:59.195Z,14.23
2023-06-10T20:36:26.600Z,15.55
2023-06-10T20:38:53.801Z,14.50
2023-06-10T20:41:22.587Z,16.17
2023-06-10T20:43:49.805Z,14.65
2023-06-10T20:46:17.052Z,17.23
2023-06-10T20:48:44.257Z,17.67
2023-06-10T20:51:11.444Z,16.30
2023-06-10T20:53:38.656Z,16.67
2023-06-10T20:56:05.931Z,15.38
2023-06-10T20:58:34.261Z,15.95
2023-06-10T21:01:01.969Z,16.80
2023-06-10T21:03:29.426Z,16.48
2023-06-10T21:05:56.774Z,16.42
2023-06-10T21:08:26.067Z,18.50
2023-06-10T21:10:55.365Z,16.02
2023-06-10T21:13:22.590Z,16.98
2023-06-10T21:15:49.920Z,19.75
2023-06-10T21:18:17.283Z,22.15
2023-06-10T21:20:44.512Z,16.98
2023-06-10T21:23:13.497Z,18.55
2023-06-10T21:25:41.548Z,24.17
2023-06-10T21:28:08.891Z,22.17
2023-06-10T21:30:37.308Z,17.92
2023-06-10T21:33:05.351Z,16.60
2023-06-10T21:35:32.643Z,17.08
2023-06-10T21:37:59.837Z,16.60
2023-06-10T21:40:27.249Z,16.23
2023-06-10T21:42:54.506Z,15.98
2023-06-10T21:45:21.743Z,16.50
2023-06-10T21:47:49.215Z,16.88
2023-06-10T21:50:16.504Z,17.30
2023-06-10T21:52:43.703Z,16.48
2023-06-10T21:55:11.459Z,17.15
2023-06-10T21:57:39.010Z,17.42
2023-06-10T22:00:12.513Z,16.35
2023-06-10T22:02:40.833Z,16.90
2023-06-10T22:05:09.454Z,16.13
2023-06-10T22:07:37.281Z,16.88
2023-06-10T22:10:05.140Z,17.23
2023-06-10T22:12:32.367Z,17.90
2023-06-10T22:14:59.590Z,17.73
2023-06-10T22:17:26.925Z,15.73
2023-06-10T22:19:54.181Z,17.15
2023-06-10T22:22:21.778Z,17.38
2023-06-10T22:24:58.332Z,17.00
2023-06-10T22:27:26.552Z,17.08
2023-06-10T22:29:53.828Z,17.50
2023-06-10T22:32:21.555Z,14.55
2023-06-10T22:34:48.914Z,15.10
2023-06-10T22:37:16.197Z,14.73
2023-06-10T22:39:43.484Z,14.43
2023-06-10T22:42:11.552Z,14.18
2023-06-10T22:44:38.815Z,15.07
2023-06-10T22:47:06.804Z,13.95
2023-06-10T22:49:34.008Z,14.45
2023-06-10T22:52:01.285Z,13.02
2023-06-10T22:54:28.486Z,13.70
2023-06-10T22:56:55.800Z,13.43
2023-06-10T22:59:23.058Z,13.13
2023-06-10T23:01:50.351Z,13.13
2023-06-10T23:04:17.706Z,12.52
2023-06-10T23:06:46.126Z,11.60
2023-06-10T23:09:14.908Z,11.32
2023-06-10T23:11:42.582Z,11.23
2023-06-10T23:14:09.826Z,11.18
2023-06-10T23:16:45.848Z,10.68
2023-06-10T23:19:19.002Z,10.27
2023-06-10T23:21:54.393Z,9.77
2023-06-10T23:24:28.266Z,10.45
2023-06-10T23:26:57.181Z,9.32
2023-06-10T23:29:26.097Z,9.55
2023-06-10T23:31:54.385Z,9.48
2023-06-10T23:34:22.313Z,8.07
2023-06-10T23:36:49.611Z,8.20
2023-06-10T23:39:17.361Z,8.05
2023-06-10T23:41:46.311Z,7.57
2023-06-10T23:44:14.513Z,7.45
2023-06-10T23:46:41.748Z,7.10
2023-06-10T23:49:09.911Z,6.80
2023-06-10T23:51:38.806Z,6.57
2023-06-10T23:54:07.028Z,6.88
2023-06-10T23:56:34.263Z,6.00
2023-06-10T23:59:01.541Z,6.47
